Time;durP1;ratioP1;P1;durP2;ratioP2;P2;SDS_P1;SDS_P2;PMS_P1;PMS_P2;Temp;Humidity;BMP_temperature;BMP_pressure;BME280_temperature;BME280_humidity;BME280_pressure;Samples;Min_cycle;Max_cycle;Signal;HPM_P1;HPM_P2
2021/04/25 00:01:01;;;;;;;14.52;9.50;;;282.20;1408.00;;;;;;5096859;23;20049;-63
2021/04/25 00:03:27;;;;;;;18.17;9.50;;;282.20;1382.40;;;;;;4864951;29;20021;-63
2021/04/25 00:05:52;;;;;;;15.77;9.43;;;282.10;1408.00;;;;;;4865933;29;20501;-62
2021/04/25 00:08:18;;;;;;;14.60;9.13;;;282.20;1408.00;;;;;;4941225;24;20049;-63
2021/04/25 00:10:44;;;;;;;16.58;9.77;;;282.10;1408.00;;;;;;4865731;29;20037;-63
2021/04/25 00:13:10;;;;;;;15.98;9.02;;;282.10;1408.00;;;;;;4865417;29;20018;-63
2021/04/25 00:15:36;;;;;;;14.40;8.82;;;282.00;1408.00;;;;;;4865149;29;20034;-63
2021/04/25 00:18:01;;;;;;;15.90;8.70;;;282.10;1433.60;;;;;;4865537;29;20053;-63
2021/04/25 00:20:28;;;;;;;14.98;8.55;;;;;;;;;;4848244;29;20027;-62
2021/04/25 00:22:53;;;;;;;18.05;8.80;;;282.10;1408.00;;;;;;4865952;29;20018;-62
2021/04/25 00:25:19;;;;;;;13.40;8.40;;;;;;;;;;4868096;29;20089;-63
2021/04/25 00:27:46;;;;;;;14.77;8.70;;;282.00;1408.00;;;;;;4868974;29;20025;-63
2021/04/25 00:30:16;;;;;;;15.45;8.90;;;282.00;1408.00;;;;;;4868810;29;20074;-63
2021/04/25 00:32:42;;;;;;;14.60;8.68;;;282.00;1408.00;;;;;;4867655;29;20030;-66
2021/04/25 00:35:09;;;;;;;14.00;8.95;;;281.90;1408.00;;;;;;4868054;29;20025;-63
2021/04/25 00:37:35;;;;;;;15.10;8.38;;;281.90;1433.60;;;;;;4867643;29;20057;-63
2021/04/25 00:40:01;;;;;;;13.15;7.95;;;281.90;1433.60;;;;;;4868753;29;20037;-63
2021/04/25 00:42:28;;;;;;;13.20;8.40;;;281.80;1433.60;;;;;;4868702;29;20030;-63
2021/04/25 00:44:54;;;;;;;12.38;8.15;;;281.80;1433.60;;;;;;4867596;29;20095;-63
2021/04/25 00:47:20;;;;;;;15.65;8.73;;;281.80;1433.60;;;;;;4868858;29;20091;-63
2021/04/25 00:49:46;;;;;;;12.65;7.93;;;281.80;1433.60;;;;;;4868389;29;20010;-63
2021/04/25 00:52:12;;;;;;;16.00;7.75;;;281.90;1408.00;;;;;;4867388;29;20464;-63
2021/04/25 00:54:40;;;;;;;11.02;7.65;;;281.80;1433.60;;;;;;4867692;29;20006;-62
2021/04/25 00:57:07;;;;;;;13.15;7.43;;;281.70;1433.60;;;;;;4868903;29;20025;-65
2021/04/25 00:59:32;;;;;;;16.15;7.75;;;281.70;1433.60;;;;;;4943647;23;19998;-63
2021/04/25 01:01:58;;;;;;;14.38;8.32;;;281.70;1433.60;;;;;;4834512;29;20062;-66
2021/04/25 01:04:24;;;;;;;13.45;7.10;;;281.80;1408.00;;;;;;4850402;29;20018;-64
2021/04/25 01:06:50;;;;;;;11.88;7.70;;;281.70;1408.00;;;;;;4849900;29;20082;-62
2021/04/25 01:09:15;;;;;;;10.73;6.80;;;281.80;1408.00;;;;;;4849426;29;20038;-63
2021/04/25 01:11:42;;;;;;;12.85;8.00;;;281.80;1408.00;;;;;;4849993;29;20018;-62
2021/04/25 01:14:08;;;;;;;14.80;7.75;;;281.70;1408.00;;;;;;4848781;29;20015;-62
2021/04/25 01:16:34;;;;;;;13.82;7.90;;;281.70;1408.00;;;;;;4849222;29;20023;-62
2021/04/25 01:18:59;;;;;;;12.18;7.53;;;281.80;1408.00;;;;;;4831509;29;20011;-62
2021/04/25 01:21:25;;;;;;;12.70;7.50;;;281.80;1408.00;;;;;;4844626;29;20129;-63
2021/04/25 01:23:51;;;;;;;12.05;7.38;;;281.70;1408.00;;;;;;4849290;29;20038;-63
2021/04/25 01:26:17;;;;;;;12.82;7.38;;;281.80;1408.00;;;;;;4849645;29;20025;-63
2021/04/25 01:28:42;;;;;;;11.50;7.47;;;281.80;1408.00;;;;;;4848524;29;20042;-63
2021/04/25 01:31:08;;;;;;;11.50;7.72;;;281.80;1408.00;;;;;;4849114;29;20023;-63
2021/04/25 01:33:34;;;;;;;13.30;7.75;;;281.80;1433.60;;;;;;4849839;29;20017;-62
2021/04/25 01:36:02;;;;;;;15.15;7.82;;;281.80;1408.00;;;;;;4831130;29;20038;-63
2021/04/25 01:38:28;;;;;;;14.05;8.27;;;281.70;1433.60;;;;;;4830335;29;20027;-63
2021/04/25 01:40:53;;;;;;;15.90;8.65;;;281.80;1408.00;;;;;;4835132;29;20045;-62
2021/04/25 01:43:19;;;;;;;13.25;8.15;;;281.80;1408.00;;;;;;4849092;29;20018;-62
2021/04/25 01:45:45;;;;;;;15.95;8.52;;;281.80;1408.00;;;;;;4839605;29;20089;-63
2021/04/25 01:48:11;;;;;;;12.63;8.05;;;281.80;1408.00;;;;;;4849644;29;20021;-63
2021/04/25 01:50:38;;;;;;;12.52;7.97;;;281.80;1408.00;;;;;;4850129;29;20023;-63
2021/04/25 01:53:05;;;;;;;13.00;7.97;;;281.80;1408.00;;;;;;4849899;29;20014;-62
2021/04/25 01:55:33;;;;;;;16.70;8.70;;;281.80;1408.00;;;;;;4849556;29;20018;-64
2021/04/25 01:57:59;;;;;;;13.20;8.07;;;281.90;1408.00;;;;;;4849676;29;20014;-63
2021/04/25 02:00:34;;;;;;;15.50;8.52;;;281.80;1408.00;;;;;;4864639;24;20050;-62
2021/04/25 02:03:02;;;;;;;12.75;8.02;;;281.80;1433.60;;;;;;4866969;29;20038;-62
2021/04/25 02:05:28;;;;;;;12.40;8.15;;;281.70;1433.60;;;;;;4866277;29;20050;-63
2021/04/25 02:07:53;;;;;;;12.80;8.68;;;281.60;1433.60;;;;;;4867462;29;20033;-63
2021/04/25 02:10:21;;;;;;;14.07;8.07;;;281.60;1433.60;;;;;;4866977;29;20041;-63
2021/04/25 02:12:47;;;;;;;14.70;8.50;;;281.70;1433.60;;;;;;4866985;29;20086;-63
2021/04/25 02:15:14;;;;;;;12.32;8.57;;;281.70;1433.60;;;;;;4848294;29;20031;-63
2021/04/25 02:17:42;;;;;;;12.85;8.27;;;281.70;1433.60;;;;;;4847575;29;20018;-63
2021/04/25 02:20:10;;;;;;;12.57;8.57;;;281.70;1459.20;;;;;;4848513;29;20046;-62
2021/04/25 02:22:35;;;;;;;15.05;8.43;;;281.70;1484.80;;;;;;4851899;29;20082;-63
2021/04/25 02:25:02;;;;;;;16.13;8.90;;;281.70;1484.80;;;;;;4866929;29;20014;-63
2021/04/25 02:27:27;;;;;;;13.68;8.93;;;281.60;1484.80;;;;;;4866158;29;20037;-63
2021/04/25 02:29:53;;;;;;;18.65;9.15;;;256.90;1484.80;;;;;;4867073;29;20030;-62
2021/04/25 02:32:19;;;;;;;17.58;9.93;;;256.80;1484.80;;;;;;4867061;29;20025;-62
2021/04/25 02:34:45;;;;;;;14.90;10.20;;;256.70;1510.40;;;;;;4866558;29;20026;-63
2021/04/25 02:37:11;;;;;;;15.35;10.02;;;;;;;;;;4866830;29;20038;-63
2021/04/25 02:39:36;;;;;;;15.68;9.50;;;256.80;1510.40;;;;;;4866468;29;20124;-62
2021/04/25 02:42:03;;;;;;;15.25;10.30;;;;;;;;;;4866410;29;20030;-65
2021/04/25 02:44:28;;;;;;;17.13;10.50;;;256.60;1510.40;;;;;;4865917;29;20026;-65
2021/04/25 02:46:54;;;;;;;18.33;12.25;;;256.50;1510.40;;;;;;4864861;29;20030;-63
2021/04/25 02:49:20;;;;;;;20.13;12.77;;;256.50;1510.40;;;;;;4865986;29;20022;-63
2021/04/25 02:51:45;;;;;;;20.67;13.80;;;256.50;1510.40;;;;;;4866466;29;20034;-63
2021/04/25 02:54:11;;;;;;;30.38;16.70;;;256.40;1510.40;;;;;;4867085;29;20014;-62
2021/04/25 02:56:37;;;;;;;34.78;17.00;;;256.20;1536.00;;;;;;4866748;29;20147;-63
2021/04/25 02:59:03;;;;;;;23.38;14.27;;;;;;;;;;4866241;29;20014;-62
2021/04/25 03:01:29;;;;;;;20.05;10.43;;;256.30;1561.60;;;;;;4858307;29;20066;-63
2021/04/25 03:03:55;;;;;;;17.13;10.93;;;256.10;1536.00;;;;;;4866890;29;20067;-63
2021/04/25 03:06:20;;;;;;;19.08;10.68;;;256.10;1561.60;;;;;;4867109;29;20025;-62
2021/04/25 03:08:46;;;;;;;18.48;9.55;;;256.10;1536.00;;;;;;4859077;29;20071;-62
2021/04/25 03:11:12;;;;;;;16.35;9.55;;;256.10;1536.00;;;;;;4848447;29;20046;-63
2021/04/25 03:13:37;;;;;;;18.05;9.60;;;256.10;1536.00;;;;;;4849747;29;20078;-63
2021/04/25 03:16:04;;;;;;;14.20;9.52;;;256.10;1561.60;;;;;;4862687;29;20022;-62
2021/04/25 03:18:29;;;;;;;13.38;9.15;;;256.00;1561.60;;;;;;4850494;29;20074;-63
2021/04/25 03:20:55;;;;;;;12.15;9.10;;;231.30;1561.60;;;;;;4847000;29;20034;-63
2021/04/25 03:23:22;;;;;;;13.60;8.93;;;231.30;1561.60;;;;;;4853528;29;20113;-63
2021/04/25 03:25:48;;;;;;;13.30;8.63;;;231.20;1561.60;;;;;;4846953;29;20015;-62
2021/04/25 03:28:13;;;;;;;14.43;8.75;;;231.20;1561.60;;;;;;4859235;29;20033;-68
2021/04/25 03:30:39;;;;;;;12.73;8.05;;;231.20;1587.20;;;;;;4858931;29;20016;-68
2021/04/25 03:33:05;;;;;;;11.07;7.38;;;231.10;1561.60;;;;;;4866298;29;20011;-63
2021/04/25 03:35:32;;;;;;;12.80;8.23;;;231.10;1587.20;;;;;;4866251;29;20069;-63
2021/04/25 03:37:58;;;;;;;13.68;7.47;;;231.00;1587.20;;;;;;4865321;29;20044;-63
2021/04/25 03:40:24;;;;;;;13.20;8.60;;;230.90;1612.80;;;;;;4847185;29;20025;-63
2021/04/25 03:42:50;;;;;;;16.02;8.40;;;230.80;1638.40;;;;;;4846631;29;20015;-63
2021/04/25 03:45:17;;;;;;;13.32;8.23;;;230.80;1638.40;;;;;;4858849;29;20030;-62
2021/04/25 03:47:48;;;;;;;13.85;8.00;;;;;;;;;;4862302;29;20018;-62
2021/04/25 03:50:16;;;;;;;12.30;7.88;;;;;;;;;;4862161;29;20018;-62
2021/04/25 03:52:42;;;;;;;15.70;7.70;;;;;;;;;;4852186;29;20010;-63
2021/04/25 03:55:09;;;;;;;13.98;8.10;;;230.90;1612.80;;;;;;4846923;29;20030;-63
2021/04/25 03:57:35;;;;;;;14.18;7.68;;;230.80;1612.80;;;;;;4851313;29;20022;-62
2021/04/25 04:00:01;;;;;;;12.13;7.65;;;230.90;1612.80;;;;;;4866710;24;20111;-62
2021/04/25 04:02:27;;;;;;;17.10;8.50;;;230.90;1612.80;;;;;;4850592;29;20024;-62
2021/04/25 04:04:52;;;;;;;16.10;9.23;;;230.90;1612.80;;;;;;4850293;29;20014;-64
2021/04/25 04:07:18;;;;;;;19.45;8.50;;;230.90;1612.80;;;;;;4849850;29;20018;-64
2021/04/25 04:09:44;;;;;;;16.02;8.70;;;231.00;1612.80;;;;;;4849581;29;20021;-63
2021/04/25 04:12:11;;;;;;;12.98;8.15;;;231.00;1612.80;;;;;;4850193;29;20066;-62
2021/04/25 04:14:37;;;;;;;19.42;8.43;;;231.10;1638.40;;;;;;4844346;29;20027;-63
2021/04/25 04:17:03;;;;;;;11.25;8.20;;;231.10;1612.80;;;;;;4831091;29;20022;-64
2021/04/25 04:19:29;;;;;;;13.73;8.65;;;231.10;1638.40;;;;;;4836437;29;20039;-62
2021/04/25 04:21:54;;;;;;;13.02;8.38;;;231.20;1638.40;;;;;;4832370;29;20064;-63
2021/04/25 04:24:20;;;;;;;18.70;8.88;;;231.20;1612.80;;;;;;4833804;29;20018;-63
2021/04/25 04:26:46;;;;;;;14.18;9.00;;;231.30;1612.80;;;;;;4829496;29;20018;-62
2021/04/25 04:29:13;;;;;;;14.00;8.60;;;;;;;;;;4848996;29;20018;-63
2021/04/25 04:31:39;;;;;;;13.38;8.85;;;;;;;;;;4850574;29;20099;-63
2021/04/25 04:34:05;;;;;;;15.10;8.95;;;;;;;;;;4850931;29;20044;-63
2021/04/25 04:36:31;;;;;;;16.70;8.82;;;;;;;;;;4863818;23;20058;-63
2021/04/25 04:38:57;;;;;;;16.70;9.48;;;;;;;;;;4868487;29;20048;-63
2021/04/25 04:41:23;;;;;;;17.30;9.10;;;;;;;;;;4868358;29;20029;-62
2021/04/25 04:43:49;;;;;;;15.35;8.85;;;;;;;;;;4868265;29;20018;-66
2021/04/25 04:46:15;;;;;;;17.88;9.48;;;;;;;;;;4868400;29;20030;-62
2021/04/25 04:48:41;;;;;;;16.73;9.02;;;;;;;;;;4868270;29;20022;-63
2021/04/25 04:51:07;;;;;;;16.70;8.50;;;;;;;;;;4868869;29;20073;-62
2021/04/25 04:53:33;;;;;;;20.05;8.60;;;;;;;;;;4868501;29;20034;-62
2021/04/25 04:56:00;;;;;;;14.23;8.77;;;;;;;;;;4868184;29;20014;-62
2021/04/25 04:58:27;;;;;;;15.10;8.82;;;;;;;;;;4852770;29;20022;-64
2021/04/25 05:00:53;;;;;;;15.93;9.35;;;;;;;;;;4874215;23;20042;-62
2021/04/25 05:03:19;;;;;;;14.77;8.88;;;;;;;;;;4868371;29;20042;-62
2021/04/25 05:05:45;;;;;;;26.77;9.85;;;;;;;;;;4867516;29;20068;-61
2021/04/25 05:08:11;;;;;;;18.23;10.13;;;;;;;;;;4868444;29;20025;-62
2021/04/25 05:10:37;;;;;;;18.10;9.20;;;;;;;;;;4867274;29;20018;-66
2021/04/25 05:13:08;;;;;;;17.20;9.57;;;;;;;;;;4867082;29;20045;-62
2021/04/25 05:15:34;;;;;;;22.50;9.20;;;;;;;;;;4864079;29;20089;-62
2021/04/25 05:18:00;;;;;;;22.65;9.23;;;;;;;;;;4867684;29;20042;-63
2021/04/25 05:20:28;;;;;;;26.52;11.02;;;;;;;;;;4866924;29;20022;-67
2021/04/25 05:22:54;;;;;;;17.95;9.43;;;;;;;;;;4867090;29;20018;-62
2021/04/25 05:25:20;;;;;;;17.67;8.70;;;;;;;;;;4867292;29;20033;-63
2021/04/25 05:27:47;;;;;;;26.80;12.55;;;;;;;;;;4850631;29;20044;-63
2021/04/25 05:30:13;;;;;;;21.67;11.23;;;;;;;;;;4866950;29;20050;-62
2021/04/25 05:32:39;;;;;;;20.65;10.00;;;;;;;;;;4867432;29;20097;-63
2021/04/25 05:35:06;;;;;;;14.30;9.73;;;;;;;;;;4867336;29;20026;-63
2021/04/25 05:37:32;;;;;;;13.85;8.70;;;;;;;;;;4866480;29;20016;-63
2021/04/25 05:40:00;;;;;;;16.75;9.30;;;;;;;;;;4866722;29;20046;-63
2021/04/25 05:42:26;;;;;;;17.20;8.88;;;;;;;;;;4867830;29;20049;-62
2021/04/25 05:44:52;;;;;;;20.88;9.48;;;;;;;;;;4868032;29;20017;-62
2021/04/25 05:47:21;;;;;;;15.20;8.35;;;;;;;;;;4867183;29;20051;-62
2021/04/25 05:49:47;;;;;;;14.88;8.45;;;;;;;;;;4867191;29;20010;-64
2021/04/25 05:52:14;;;;;;;18.15;8.70;;;;;;;;;;4866986;29;20128;-63
2021/04/25 05:54:40;;;;;;;14.80;7.80;;;;;;;;;;4867154;29;20026;-63
2021/04/25 05:57:07;;;;;;;17.52;8.55;;;;;;;;;;4866704;29;20029;-63
2021/04/25 05:59:34;;;;;;;23.50;9.10;;;;;;;;;;4877258;23;20097;-64
2021/04/25 06:02:00;;;;;;;15.48;8.70;;;;;;;;;;4848432;29;20108;-63
2021/04/25 06:04:26;;;;;;;14.15;8.63;;;;;;;;;;4848066;29;20046;-67
2021/04/25 06:06:52;;;;;;;15.00;7.97;;;;;;;;;;4847371;29;20045;-85
2021/04/25 06:09:18;;;;;;;15.82;8.00;;;;;;;;;;4839929;29;20042;-80
2021/04/25 06:11:44;;;;;;;13.27;7.72;;;;;;;;;;4832664;29;20393;-84
2021/04/25 06:14:10;;;;;;;13.60;8.00;;;;;;;;;;4827942;29;20080;-89
2021/04/25 06:16:36;;;;;;;19.23;8.30;;;;;;;;;;4824864;29;20532;-88
2021/04/25 06:19:02;;;;;;;12.93;7.53;;;;;;;;;;4822650;29;20038;-88
2021/04/25 06:21:29;;;;;;;16.20;8.20;;;;;;;;;;4824289;29;20048;-91
2021/04/25 06:23:55;;;;;;;13.27;8.00;;;;;;;;;;4824797;29;20119;-91
2021/04/25 06:26:21;;;;;;;18.95;8.02;;;;;;;;;;4824529;29;20040;-73
2021/04/25 06:28:48;;;;;;;13.90;8.18;;;;;;;;;;4823591;29;20062;-91
2021/04/25 06:31:14;;;;;;;16.13;7.82;;;;;;;;;;4822385;29;20404;-90
2021/04/25 06:33:40;;;;;;;16.27;8.02;;;;;;;;;;4818434;29;20045;-88
2021/04/25 06:36:06;;;;;;;17.63;8.30;;;;;;;;;;4822955;29;20105;-79
2021/04/25 06:38:32;;;;;;;15.48;8.00;;;;;;;;;;4824258;29;20106;-77
2021/04/25 06:40:59;;;;;;;15.60;8.55;;;;;;;;;;4807964;29;20069;-83
2021/04/25 06:43:25;;;;;;;13.45;8.13;;;;;;;;;;4823873;29;20022;-87
2021/04/25 06:45:51;;;;;;;10.85;6.35;;;;;;;;;;4824147;29;20027;-90
2021/04/25 06:48:17;;;;;;;11.98;6.85;;;;;;;;;;4822891;29;20037;-92
2021/04/25 06:50:43;;;;;;;12.27;6.95;;;;;;;;;;4823411;29;20038;-86
2021/04/25 06:53:09;;;;;;;10.40;6.40;;;;;;;;;;4827194;29;20030;-80
2021/04/25 06:55:35;;;;;;;16.40;6.78;;;;;;;;;;4820662;29;20517;-89
2021/04/25 06:58:02;;;;;;;11.13;6.03;;;;;;;;;;4822116;29;20026;-71
2021/04/25 07:00:28;;;;;;;15.48;6.53;;;;;;;;;;4817619;29;20046;-77
2021/04/25 07:02:55;;;;;;;10.15;6.78;;;;;;;;;;4820625;29;20034;-78
2021/04/25 07:05:21;;;;;;;11.20;6.88;;;;;;;;;;4822400;29;20040;-74
2021/04/25 07:07:47;;;;;;;14.18;7.18;;;;;;;;;;4822381;29;20034;-71
2021/04/25 07:10:13;;;;;;;10.63;6.95;;;;;;;;;;4823070;29;20129;-71
2021/04/25 07:12:39;;;;;;;10.18;6.78;;;;;;;;;;4821934;29;20034;-85
2021/04/25 07:15:06;;;;;;;11.65;7.05;;;;;;;;;;4822618;29;20054;-73
2021/04/25 07:18:04;;;;;;;13.35;7.80;;;;;;;;;;4807848;29;20497;-73
2021/04/25 07:20:30;;;;;;;11.68;7.20;;;;;;;;;;4800845;29;20142;-79
2021/04/25 07:22:56;;;;;;;66.65;9.45;;;;;;;;;;4839574;29;20038;-78
2021/04/25 07:25:22;;;;;;;14.15;7.93;;;;;;;;;;4834696;29;20092;-83
2021/04/25 07:27:48;;;;;;;14.35;8.25;;;;;;;;;;4806752;29;20113;-79
2021/04/25 07:30:14;;;;;;;12.95;7.93;;;;;;;;;;4818327;29;20039;-79
2021/04/25 07:32:40;;;;;;;12.55;7.65;;;;;;;;;;4803433;29;20043;-72
2021/04/25 07:35:07;;;;;;;42.70;8.82;;;;;;;;;;4819495;29;20026;-69
2021/04/25 07:37:34;;;;;;;11.55;7.80;;;;;;;;;;4815176;29;20517;-74
2021/04/25 07:40:00;;;;;;;11.60;7.90;;;;;;;;;;4816179;29;20047;-74
2021/04/25 07:42:26;;;;;;;16.45;7.55;;;;;;;;;;4810253;29;20044;-70
2021/04/25 07:44:52;;;;;;;13.73;7.70;;;;;;;;;;4824135;29;20049;-76
2021/04/25 07:47:35;;;;;;;12.88;7.45;;;;;;;;;;5047742;23;20050;-64
2021/04/25 07:50:01;;;;;;;10.88;7.05;;;;;;;;;;4812725;29;20046;-73
2021/04/25 07:52:27;;;;;;;15.85;7.00;;;;;;;;;;4838739;29;20037;-74
2021/04/25 07:54:53;;;;;;;12.63;7.53;;;;;;;;;;4869695;29;20480;-65
2021/04/25 07:57:19;;;;;;;11.88;7.22;;;;;;;;;;4861856;29;20396;-65
2021/04/25 07:59:47;;;;;;;15.27;8.00;;;;;;;;;;4860919;29;20077;-65
2021/04/25 08:02:13;;;;;;;14.73;7.97;;;;;;;;;;4861220;29;20037;-65
2021/04/25 08:04:39;;;;;;;18.67;7.95;;;;;;;;;;4858386;29;20021;-73
2021/04/25 08:07:05;;;;;;;13.02;8.13;;;;;;;;;;4844508;29;20055;-63
2021/04/25 08:09:31;;;;;;;13.85;7.93;;;;;;;;;;4855888;29;20056;-68
2021/04/25 08:11:57;;;;;;;16.15;8.57;;;;;;;;;;4833780;29;20048;-65
2021/04/25 08:14:23;;;;;;;12.80;8.13;;;;;;;;;;4863022;29;20014;-75
2021/04/25 08:16:50;;;;;;;13.77;7.70;;;;;;;;;;4858260;29;20036;-66
2021/04/25 08:19:16;;;;;;;21.25;7.72;;;;;;;;;;4837935;29;20030;-77
2021/04/25 08:21:42;;;;;;;16.45;7.97;;;;;;;;;;4847356;29;20540;-70
2021/04/25 08:24:08;;;;;;;16.38;7.90;;;;;;;;;;4853778;29;20034;-70
2021/04/25 08:26:34;;;;;;;21.40;9.13;;;;;;;;;;4858245;29;20030;-68
2021/04/25 08:29:01;;;;;;;14.73;8.82;;;;;;;;;;4860658;29;20034;-75
2021/04/25 08:31:28;;;;;;;15.57;8.32;;;;;;;;;;4859240;29;20037;-71
2021/04/25 08:33:54;;;;;;;28.83;9.35;;;;;;;;;;4862254;29;20072;-62
2021/04/25 08:36:20;;;;;;;14.48;8.30;;;;;;;;;;4852830;29;20029;-76
2021/04/25 08:38:47;;;;;;;16.33;8.48;;;;;;;;;;4850702;29;20035;-76
2021/04/25 08:41:15;;;;;;;13.88;8.50;;;;;;;;;;4852791;29;20053;-62
2021/04/25 08:43:42;;;;;;;14.55;8.43;;;;;;;;;;4862771;29;20117;-74
2021/04/25 08:46:08;;;;;;;16.02;8.30;;;;;;;;;;4859786;29;20013;-72
2021/04/25 08:48:35;;;;;;;14.13;8.23;;;;;;;;;;4862103;29;20046;-63
2021/04/25 08:51:02;;;;;;;19.20;8.45;;;;;;;;;;4844809;29;20110;-72
2021/04/25 08:53:29;;;;;;;20.27;8.90;;;;;;;;;;4841445;29;20041;-73
2021/04/25 08:55:58;;;;;;;16.50;8.98;;;;;;;;;;4849135;29;20030;-76
2021/04/25 08:58:24;;;;;;;21.10;8.75;;;;;;;;;;4851964;29;20114;-62
2021/04/25 09:00:50;;;;;;;14.00;8.77;;;;;;;;;;4846001;29;20413;-75
2021/04/25 09:03:17;;;;;;;18.83;9.85;;;;;;;;;;4867735;29;20018;-62
2021/04/25 09:05:44;;;;;;;14.80;8.88;;;;;;;;;;4857623;29;20105;-61
2021/04/25 09:08:11;;;;;;;255.85;24.88;;;;;;;;;;4848346;29;20027;-62
2021/04/25 09:10:38;;;;;;;20.58;9.77;;;;;;;;;;4849360;29;20034;-62
2021/04/25 09:13:15;;;;;;;13.50;8.98;;;;;;;;;;4864496;29;20037;-61
2021/04/25 09:15:41;;;;;;;21.33;9.70;;;;;;;;;;4868021;29;20010;-61
2021/04/25 09:18:07;;;;;;;18.05;9.02;;;;;;;;;;4857439;29;20042;-62
2021/04/25 09:20:38;;;;;;;16.02;9.93;;;;;;;;;;4847199;29;20046;-62
2021/04/25 09:23:05;;;;;;;17.58;10.23;;;;;;;;;;4850038;29;20030;-61
2021/04/25 09:25:31;;;;;;;15.80;10.77;;;;;;;;;;4868208;29;20037;-67
2021/04/25 09:28:09;;;;;;;17.20;10.80;;;;;;;;;;4865469;29;20034;-66
2021/04/25 09:30:35;;;;;;;17.02;10.55;;;;;;;;;;4849010;29;20074;-61
2021/04/25 09:33:03;;;;;;;17.80;11.05;;;;;;;;;;4849061;29;20083;-62
2021/04/25 09:35:29;;;;;;;26.73;10.20;;;;;;;;;;4847905;29;20022;-61
2021/04/25 09:37:56;;;;;;;17.55;10.38;;;;;;;;;;4849683;29;20022;-61
2021/04/25 09:40:28;;;;;;;20.13;10.52;;;;;;;;;;4830625;23;20061;-61
2021/04/25 09:43:02;;;;;;;16.75;10.23;;;;;;;;;;4867571;29;20029;-65
2021/04/25 09:45:28;;;;;;;21.65;10.25;;;;;;;;;;4867122;29;20038;-67
2021/04/25 09:47:54;;;;;;;28.63;13.10;;;;;;;;;;4852175;29;20026;-61
2021/04/25 09:50:22;;;;;;;20.00;10.65;;;;;;;;;;4946860;24;20077;-64
2021/04/25 09:52:50;;;;;;;19.42;10.90;;;;;;;;;;4855651;29;20078;-68
2021/04/25 09:55:19;;;;;;;22.45;11.00;;;;;;;;;;4862166;29;20026;-65
2021/04/25 09:57:46;;;;;;;18.30;10.65;;;;;;;;;;4863672;29;20034;-65
2021/04/25 10:00:12;;;;;;;19.45;10.95;;;;;;;;;;4867593;29;20014;-64
2021/04/25 10:02:59;;;;;;;19.55;11.15;;;;;;;;;;4854586;29;20030;-79
2021/04/25 10:05:26;;;;;;;24.40;11.23;;;;;;;;;;4860420;29;20013;-75
2021/04/25 10:07:53;;;;;;;16.85;10.35;;;;;;;;;;4853211;29;20166;-68
2021/04/25 10:10:19;;;;;;;18.08;11.02;;;;;;;;;;4858777;29;20043;-70
2021/04/25 10:12:49;;;;;;;18.42;10.90;;;;;;;;;;4865182;29;20097;-72
2021/04/25 10:15:16;;;;;;;20.40;10.07;;;;;;;;;;4864011;29;20014;-69
2021/04/25 10:17:45;;;;;;;30.15;20.65;;;;;;;;;;4855846;29;20048;-75
2021/04/25 10:20:14;;;;;;;28.27;10.70;;;;;;;;;;4859262;29;20022;-61
2021/04/25 10:22:44;;;;;;;19.65;10.75;;;;;;;;;;4865871;29;20017;-61
2021/04/25 10:25:15;;;;;;;16.95;10.68;;;;;;;;;;4866524;29;20037;-65
2021/04/25 10:27:43;;;;;;;19.27;10.70;;;;;;;;;;4863572;29;20041;-79
2021/04/25 10:30:10;;;;;;;54.90;37.55;;;;;;;;;;4862596;29;20022;-65
2021/04/25 10:32:36;;;;;;;20.85;12.13;;;;;;;;;;4864191;29;20043;-73
2021/04/25 10:35:15;;;;;;;17.00;9.90;;;;;;;;;;4843441;29;20493;-75
2021/04/25 10:37:42;;;;;;;13.43;9.82;;;;;;;;;;4845815;29;20032;-75
2021/04/25 10:40:23;;;;;;;18.90;10.60;;;;;;;;;;4847907;29;20065;-73
2021/04/25 10:43:08;;;;;;;17.90;10.00;;;;;;;;;;4850417;29;20520;-72
2021/04/25 10:45:55;;;;;;;20.00;9.43;;;;;;;;;;4843800;29;20049;-75
2021/04/25 10:48:31;;;;;;;15.77;9.75;;;;;;;;;;4803520;29;20586;-75
2021/04/25 10:51:04;;;;;;;13.40;8.55;;;;;;;;;;4805364;29;20055;-75
2021/04/25 10:53:34;;;;;;;23.15;9.85;;;;;;;;;;4804785;29;20114;-75
2021/04/25 10:56:13;;;;;;;14.57;9.60;;;;;;;;;;4804106;29;20175;-74
2021/04/25 10:58:39;;;;;;;30.25;10.30;;;;;;;;;;4794455;29;20038;-76
2021/04/25 11:01:05;;;;;;;17.00;8.45;;;;;;;;;;4792262;29;20054;-66
2021/04/25 11:03:37;;;;;;;17.65;9.77;;;;;;;;;;4795233;29;20457;-71
2021/04/25 11:06:03;;;;;;;12.70;8.45;;;;;;;;;;4810286;29;20133;-76
2021/04/25 11:08:32;;;;;;;16.23;9.00;;;;;;;;;;4799718;29;20023;-70
2021/04/25 11:11:07;;;;;;;14.27;8.90;;;;;;;;;;4817808;29;20036;-77
2021/04/25 11:16:02;;;;;;;16.65;9.10;;;;;;;;;;4806969;29;20414;-71
2021/04/25 11:18:42;;;;;;;12.68;9.10;;;;;;;;;;4802594;29;20095;-73
2021/04/25 11:21:36;;;;;;;14.35;8.45;;;;;;;;;;4785452;29;20103;-73
2021/04/25 11:24:02;;;;;;;17.35;9.32;;;;;;;;;;4803822;29;20032;-76
2021/04/25 11:29:07;;;;;;;46.75;25.33;;;;;;;;;;4839807;29;20096;-74
2021/04/25 11:31:51;;;;;;;16.67;9.10;;;;;;;;;;4830901;29;20061;-78
2021/04/25 11:34:23;;;;;;;17.92;8.60;;;;;;;;;;4841449;29;20054;-71
2021/04/25 11:37:09;;;;;;;19.02;8.48;;;;;;;;;;4832749;29;20056;-72
2021/04/25 11:39:40;;;;;;;17.45;8.50;;;;;;;;;;4822975;29;20038;-71
2021/04/25 11:42:09;;;;;;;18.98;8.88;;;;;;;;;;4830160;29;20043;-70
2021/04/25 11:44:42;;;;;;;15.93;9.32;;;;;;;;;;4829222;29;20026;-70
2021/04/25 11:47:10;;;;;;;17.45;8.90;;;;;;;;;;4829435;29;20047;-70
2021/04/25 11:49:37;;;;;;;17.95;8.07;;;;;;;;;;4827538;29;20525;-71
2021/04/25 11:52:10;;;;;;;13.07;8.55;;;;;;;;;;4831934;29;20066;-73
2021/04/25 11:54:36;;;;;;;12.38;8.07;;;;;;;;;;4832614;29;20059;-71
2021/04/25 11:57:13;;;;;;;13.85;8.68;;;;;;;;;;4832034;29;20034;-76
2021/04/25 11:59:51;;;;;;;14.13;8.48;;;;;;;;;;4810246;29;20034;-70
2021/04/25 12:02:17;;;;;;;12.82;8.85;;;;;;;;;;4827496;29;20093;-70
2021/04/25 12:04:49;;;;;;;16.13;8.23;;;;;;;;;;4814645;29;20038;-69
2021/04/25 12:07:34;;;;;;;14.15;8.35;;;;;;;;;;4832006;29;20094;-68
2021/04/25 12:10:00;;;;;;;13.07;7.72;;;;;;;;;;4837989;29;20026;-76
2021/04/25 12:12:26;;;;;;;14.45;8.18;;;;;;;;;;4830146;29;20034;-71
2021/04/25 12:15:06;;;;;;;17.52;8.68;;;;;;;;;;4832909;29;20031;-69
2021/04/25 12:17:32;;;;;;;17.38;9.10;;;;;;;;;;4826535;29;20360;-69
2021/04/25 12:20:00;;;;;;;18.23;8.43;;;;;;;;;;4832605;29;20125;-70
2021/04/25 12:22:27;;;;;;;18.80;9.02;;;;;;;;;;4827401;29;20388;-69
2021/04/25 12:25:02;;;;;;;13.65;8.13;;;;;;;;;;4814030;29;20034;-70
2021/04/25 12:27:28;;;;;;;13.35;9.00;;;;;;;;;;4832366;29;20030;-69
2021/04/25 12:29:54;;;;;;;14.88;8.43;;;;;;;;;;4832384;29;20114;-69
2021/04/25 12:32:20;;;;;;;12.73;8.23;;;;;;;;;;4831974;29;20038;-67
2021/04/25 12:34:56;;;;;;;13.85;8.90;;;;;;;;;;4836398;29;20038;-68
2021/04/25 12:37:36;;;;;;;13.63;8.43;;;;;;;;;;4830770;29;20046;-70
2021/04/25 12:40:03;;;;;;;40.78;9.57;;;;;;;;;;4835629;29;20041;-70
2021/04/25 12:42:29;;;;;;;16.80;8.93;;;;;;;;;;4833240;29;20078;-69
2021/04/25 12:44:55;;;;;;;17.85;9.45;;;;;;;;;;4833618;29;20370;-70
2021/04/25 12:47:30;;;;;;;13.98;8.95;;;;;;;;;;4831443;29;20065;-72
2021/04/25 12:49:57;;;;;;;15.15;9.07;;;;;;;;;;4852720;29;20066;-70
2021/04/25 12:52:35;;;;;;;15.25;9.00;;;;;;;;;;4831427;29;20027;-72
2021/04/25 12:55:01;;;;;;;30.02;9.32;;;;;;;;;;4828372;29;20031;-70
2021/04/25 12:57:28;;;;;;;16.60;9.35;;;;;;;;;;4833683;29;20034;-70
2021/04/25 12:59:54;;;;;;;17.63;8.77;;;;;;;;;;4826132;29;20045;-71
2021/04/25 13:02:21;;;;;;;14.70;8.18;;;;;;;;;;4837250;29;20057;-69
2021/04/25 13:04:47;;;;;;;12.82;8.60;;;;;;;;;;4828726;29;20027;-70
2021/04/25 13:07:31;;;;;;;12.45;8.32;;;;;;;;;;4831283;29;20034;-70
2021/04/25 13:10:01;;;;;;;14.65;8.68;;;;;;;;;;4827446;29;20098;-69
2021/04/25 13:12:31;;;;;;;14.65;8.38;;;;;;;;;;4819509;29;20038;-68
2021/04/25 13:15:00;;;;;;;15.68;8.95;;;;;;;;;;4839420;29;20492;-69
2021/04/25 13:17:27;;;;;;;16.08;9.07;;;;;;;;;;4832801;29;20523;-70
2021/04/25 13:19:53;;;;;;;16.02;8.57;;;;;;;;;;4836027;29;20034;-70
2021/04/25 13:22:19;;;;;;;14.90;8.98;;;;;;;;;;4826739;29;20117;-69
2021/04/25 13:24:46;;;;;;;15.05;9.02;;;;;;;;;;4827622;29;20034;-69
2021/04/25 13:27:14;;;;;;;28.02;9.10;;;;;;;;;;4837841;29;20035;-71
2021/04/25 13:29:41;;;;;;;12.25;7.40;;;;;;;;;;4833953;29;20034;-70
2021/04/25 13:32:07;;;;;;;12.95;7.30;;;;;;;;;;4826885;29;20062;-70
2021/04/25 13:34:33;;;;;;;16.67;7.50;;;;;;;;;;4834797;29;20037;-70
2021/04/25 13:36:59;;;;;;;15.82;7.75;;;;;;;;;;4828003;29;20030;-71
2021/04/25 13:39:25;;;;;;;10.85;7.10;;;;;;;;;;4833076;29;20053;-69
2021/04/25 13:42:05;;;;;;;12.00;7.40;;;;;;;;;;4839870;29;20073;-71
2021/04/25 13:44:31;;;;;;;12.52;7.60;;;;;;;;;;4815700;29;20030;-70
2021/04/25 13:46:57;;;;;;;15.75;7.57;;;;;;;;;;4837391;29;20053;-70